Προβλήματα στις πτήσεις εσωτερικού από την κακοκαιρία

makedonas

Concorde-Class-Member
Εγγραφή
06/09/2003
Μηνύματα
5.934
Likes
0
Website
avianewsgr.blogspot.com
Αγαπημένη αεροπορική εταιρεία (ICAO Code)
RUS
Πλησιέστερο αεροδρόμιο (ICAO Code)
EDDM
ΑΠΕ
Πέμπτη, 3 Φεβρουαρίου 2005 20:01
Τελευταία Ενημέρωση : 03/02/2005 20:02

Συνεχίστηκαν και το απόγευμα τα προβλήματα στις αεροπορικές συγκοινωνίες, εξαιτίας των δυσμενών καιρικών συνθηκών.

Στην Αλεξανδρούπολη το αεροδρόμιο της πόλης έκλεισε λόγω της χιονοθύελλας αλλά και των πολύ ισχυρών ανέμων που πνέουν στην περιοχή, με αποτέλεσμα να μην εκτελεστούν οι πρωινές και οι απογευματινές πτήσεις των Ολυμπιακών Αερογραμμών και της Aegean Airlines

Το απόγευμα ματαιώθηκαν επίσης οι πτήσεις των Ολυμπιακών Αερογραμμών από Αθήνα για Λήμνο, Χανιά και Ικαρία καθώς και η τοπική πτήση από Μυτιλήνη για Λήμνο.


source: naftemporiki.gr


--------------------------------------------------------------------------------------------------

Any commentz?
 

LEKPO1A

Moderator
Staff member
Εγγραφή
04/09/2003
Μηνύματα
3.782
Likes
140
36 knots στην Αλεξανδρούπολη.... (8 beaufort) (50 knots gusts) :shock:

METAR: LGAL 031720Z 01036G50KT 7000 -SN SCT008 BKN015 OVC070 01/M03 Q1004

28 knots στη Λήμνο (40 knots gusts)

METAR: LGLM 031720Z 02028G40KT 1800 SNRA BR SCT006 BKN018 OVC060 01/01 Q1003
 
Top